Rostein — LLHI — position and weather

sailwx.info

Track history (hours):
 
Tides and Currents Weather Stations Pressure Air Temp Water Temp Dewpoint Dewpoint Depression Visibility Wind Speed Wind Dir Waves Ship Positions

Rostein

Last reported at 2017-Jan-08 14:16 UTC. Time now 2017-Jan-16 10:56 UTC.
Position N 68°57' E 017°07'.

Length 57 m; draft 4 m.

Type: Cargo ship. MMSI: 257210000.

Date/timePositionNaut miles runAvg speedWind from/ knotsBaromVisibWave heightAir tempDewpointWater temp
2017-Jan-08 14:16N 68°57' E 017°07'8 9.7
2017-Jan-08 13:26N 69°04' E 017°20'910.2
2017-Jan-08 12:34N 69°08' E 017°42'9 8.8
2017-Jan-08 11:34N 69°15' E 017°58'6 0.3
2017-Jan-07 17:28N 69°20' E 018°03'8 8.5
2017-Jan-07 16:33N 69°13' E 017°60'9 8.5
2017-Jan-07 15:34N 69°09' E 017°39'0 0.3
2017-Jan-07 14:33N 69°09' E 017°39'0 0.0
2017-Jan-07 13:34N 69°09' E 017°39'0 0.0
2017-Jan-07 12:34N 69°09' E 017°39'0 0.0
2017-Jan-07 11:33N 69°09' E 017°39'1 0.7
2017-Jan-07 10:33N 69°08' E 017°37'1 0.6
2017-Jan-07 09:33N 69°08' E 017°37'2 2.2
2017-Jan-07 08:33N 69°08' E 017°43'6 5.7
2017-Jan-07 07:33N 69°10' E 017°58'6 6.4
2017-Jan-07 06:33N 69°17' E 017°58'  
2017-Jan-05 02:15N 69°20' E 018°03'7 9.8
2017-Jan-05 01:34N 69°14' E 017°58'7 7.3
2017-Jan-05 00:33N 69°09' E 017°43'2 1.5
2017-Jan-04 23:33N 69°09' E 017°39'0 0.0
2017-Jan-04 22:33N 69°09' E 017°39'0 0.0
2017-Jan-04 21:32N 69°09' E 017°39'8 8.7
2017-Jan-04 20:34N 69°11' E 018°01'  
Track history (hours):
 
Tides and Currents Weather Stations Pressure Air Temp Water Temp Dewpoint Dewpoint Depression Visibility Wind Speed Wind Dir Waves Ship Positions

Rostein

Last reported at 2017-Jan-08 14:16 UTC. Time now 2017-Jan-16 10:56 UTC.
Position N 68°57' E 017°07'.

Length 57 m; draft 4 m.

Type: Cargo ship. MMSI: 257210000.

Date/timePositionNaut miles runAvg speedWind from/ knotsBaromVisibWave heightAir tempDewpointWater temp
2017-Jan-08 14:16N 68°57' E 017°07'8 9.7
2017-Jan-08 13:26N 69°04' E 017°20'910.2
2017-Jan-08 12:34N 69°08' E 017°42'9 8.8
2017-Jan-08 11:34N 69°15' E 017°58'6 0.3
2017-Jan-07 17:28N 69°20' E 018°03'8 8.5
2017-Jan-07 16:33N 69°13' E 017°60'9 8.5
2017-Jan-07 15:34N 69°09' E 017°39'0 0.3
2017-Jan-07 14:33N 69°09' E 017°39'0 0.0
2017-Jan-07 13:34N 69°09' E 017°39'0 0.0
2017-Jan-07 12:34N 69°09' E 017°39'0 0.0
2017-Jan-07 11:33N 69°09' E 017°39'1 0.7
2017-Jan-07 10:33N 69°08' E 017°37'1 0.6
2017-Jan-07 09:33N 69°08' E 017°37'2 2.2
2017-Jan-07 08:33N 69°08' E 017°43'6 5.7
2017-Jan-07 07:33N 69°10' E 017°58'6 6.4
2017-Jan-07 06:33N 69°17' E 017°58'  
2017-Jan-05 02:15N 69°20' E 018°03'7 9.8
2017-Jan-05 01:34N 69°14' E 017°58'7 7.3
2017-Jan-05 00:33N 69°09' E 017°43'2 1.5
2017-Jan-04 23:33N 69°09' E 017°39'0 0.0
2017-Jan-04 22:33N 69°09' E 017°39'0 0.0
2017-Jan-04 21:32N 69°09' E 017°39'8 8.7
2017-Jan-04 20:34N 69°11' E 018°01'  

Dump ship's entire track history